Time;durP1;ratioP1;P1;durP2;ratioP2;P2;SDS_P1;SDS_P2;PMS_P1;PMS_P2;Temp;Humidity;BMP_temperature;BMP_pressure;BME280_temperature;BME280_humidity;BME280_pressure;Samples;Min_cycle;Max_cycle;Signal;HPM_P1;HPM_P2
2022/09/12 00:01:25;;;;;;;10.87;9.47;;;14.60;99.90;;;;;;5069657;28;20555;-64
2022/09/12 00:03:56;;;;;;;10.37;9.37;;;14.60;99.90;;;;;;5070599;28;20196;-64
2022/09/12 00:06:27;;;;;;;11.23;9.87;;;14.50;99.90;;;;;;5071802;28;20208;-64
2022/09/12 00:08:58;;;;;;;12.70;10.83;;;14.50;99.90;;;;;;5075134;28;20193;-64
2022/09/12 00:11:27;;;;;;;13.43;10.60;;;14.50;99.90;;;;;;5078614;28;20274;-64
2022/09/12 00:13:56;;;;;;;12.67;11.03;;;14.40;99.90;;;;;;5070378;28;20231;-64
2022/09/12 00:16:28;;;;;;;16.43;12.47;;;14.40;99.90;;;;;;5076240;28;20196;-64
2022/09/12 00:18:56;;;;;;;13.57;12.27;;;14.40;99.90;;;;;;5069937;28;20276;-64
2022/09/12 00:21:25;;;;;;;15.97;13.00;;;14.40;99.90;;;;;;5059810;28;20189;-64
2022/09/12 00:23:54;;;;;;;15.87;12.60;;;14.50;99.90;;;;;;5065344;28;20199;-64
2022/09/12 00:26:22;;;;;;;17.73;12.87;;;14.50;99.90;;;;;;5071224;28;20200;-64
2022/09/12 00:28:51;;;;;;;14.97;13.37;;;14.50;99.90;;;;;;5062989;28;20188;-64
2022/09/12 00:31:22;;;;;;;15.90;13.43;;;14.40;99.90;;;;;;5073609;28;20200;-64
2022/09/12 00:33:55;;;;;;;15.60;13.30;;;14.40;99.90;;;;;;5071543;28;20345;-64
2022/09/12 00:36:25;;;;;;;16.50;13.73;;;14.40;99.90;;;;;;5064472;28;20522;-64
2022/09/12 00:38:54;;;;;;;15.63;13.40;;;14.40;99.90;;;;;;5071108;28;20225;-64
2022/09/12 00:41:30;;;;;;;19.77;14.23;;;14.40;99.90;;;;;;5072982;28;20204;-64
2022/09/12 00:44:00;;;;;;;19.43;15.10;;;14.40;99.90;;;;;;5068712;28;20196;-64
2022/09/12 00:46:35;;;;;;;18.80;14.27;;;14.40;99.90;;;;;;5076220;28;20195;-64
2022/09/12 00:49:12;;;;;;;20.33;13.27;;;14.30;99.90;;;;;;5064825;28;20188;-64
2022/09/12 00:51:45;;;;;;;16.43;13.57;;;14.30;99.90;;;;;;5063171;28;20204;-64
2022/09/12 00:54:19;;;;;;;17.53;14.80;;;14.30;99.90;;;;;;5067611;28;20269;-64
2022/09/12 00:56:50;;;;;;;16.73;14.20;;;14.30;99.90;;;;;;5071282;28;20200;-64
2022/09/12 00:59:21;;;;;;;18.60;13.83;;;14.30;99.90;;;;;;5065883;28;20200;-64
2022/09/12 01:01:51;;;;;;;18.37;13.77;;;14.30;99.90;;;;;;5068600;28;20188;-64
2022/09/12 01:04:25;;;;;;;16.60;13.97;;;14.30;99.90;;;;;;5069940;28;20198;-64
2022/09/12 01:06:57;;;;;;;17.83;13.77;;;14.30;99.90;;;;;;5074820;28;20196;-64
2022/09/12 01:09:26;;;;;;;16.87;13.90;;;14.20;99.90;;;;;;5073291;28;20196;-63
2022/09/12 01:11:54;;;;;;;21.83;14.43;;;14.30;99.90;;;;;;5073468;28;20196;-64
2022/09/12 01:14:23;;;;;;;20.17;13.57;;;14.20;99.90;;;;;;5071998;28;20196;-64
2022/09/12 01:16:52;;;;;;;19.93;14.13;;;14.20;99.90;;;;;;5066334;28;20200;-64
2022/09/12 01:19:54;;;;;;;17.80;13.40;;;14.20;99.90;;;;;;5077148;28;20196;-63
2022/09/12 01:22:42;;;;;;;15.97;12.90;;;14.20;99.90;;;;;;5069341;28;20706;-64
2022/09/12 01:25:22;;;;;;;19.13;12.50;;;14.20;99.90;;;;;;5067009;28;20196;-63
2022/09/12 01:28:08;;;;;;;17.93;12.53;;;14.10;99.90;;;;;;5070003;28;20205;-64
2022/09/12 01:30:50;;;;;;;19.40;13.50;;;14.10;99.90;;;;;;5076303;28;20647;-64
2022/09/12 01:33:33;;;;;;;14.97;12.80;;;14.10;99.90;;;;;;5073051;28;20218;-64
2022/09/12 01:36:18;;;;;;;18.27;12.50;;;14.10;99.90;;;;;;5075977;28;20207;-63
2022/09/12 01:38:50;;;;;;;15.87;12.97;;;14.10;99.90;;;;;;5070855;28;20658;-64
2022/09/12 01:41:27;;;;;;;18.90;14.97;;;14.10;99.90;;;;;;5079385;28;20188;-63
2022/09/12 01:44:05;;;;;;;18.47;13.97;;;14.10;99.90;;;;;;5078275;28;20187;-64
2022/09/12 01:46:42;;;;;;;17.70;14.23;;;14.20;99.90;;;;;;5075609;28;20196;-63
2022/09/12 01:49:17;;;;;;;19.47;14.03;;;14.20;99.90;;;;;;5067182;28;20379;-64
2022/09/12 01:51:57;;;;;;;16.23;13.30;;;14.20;99.90;;;;;;5060550;28;20655;-63
2022/09/12 01:54:30;;;;;;;14.97;12.60;;;14.10;99.90;;;;;;5065894;28;20545;-64
2022/09/12 01:57:03;;;;;;;17.30;13.27;;;14.10;99.90;;;;;;5073644;28;20192;-63
2022/09/12 01:59:38;;;;;;;17.37;12.70;;;14.00;99.90;;;;;;5068181;28;20200;-63
2022/09/12 02:02:12;;;;;;;19.53;14.20;;;14.00;99.90;;;;;;5074028;28;20200;-63
2022/09/12 02:04:48;;;;;;;20.60;13.73;;;14.00;99.90;;;;;;5066069;28;20582;-63
2022/09/12 02:07:20;;;;;;;18.10;13.97;;;13.90;99.90;;;;;;5066793;28;20289;-63
2022/09/12 02:09:54;;;;;;;17.40;13.33;;;13.90;99.90;;;;;;5071988;28;20224;-63
2022/09/12 02:12:26;;;;;;;19.37;13.70;;;13.90;99.90;;;;;;5071538;28;20220;-63
2022/09/12 02:15:02;;;;;;;19.80;13.07;;;13.90;99.90;;;;;;5064096;28;20196;-63
2022/09/12 02:17:36;;;;;;;25.60;15.83;;;13.90;99.90;;;;;;5063433;28;20681;-63
2022/09/12 02:20:10;;;;;;;19.70;15.03;;;13.90;99.90;;;;;;5068914;28;20192;-63
2022/09/12 02:23:00;;;;;;;20.63;14.57;;;13.90;99.90;;;;;;5060183;28;20193;-63
2022/09/12 02:25:30;;;;;;;18.53;14.23;;;13.90;99.90;;;;;;5066666;28;20205;-63
2022/09/12 02:28:04;;;;;;;21.27;14.90;;;13.90;99.90;;;;;;5072476;28;20188;-63
2022/09/12 02:30:39;;;;;;;18.37;13.57;;;13.90;99.90;;;;;;5062976;28;20208;-63
2022/09/12 02:33:16;;;;;;;18.43;14.20;;;13.90;99.90;;;;;;5069306;28;20201;-63
2022/09/12 02:35:49;;;;;;;18.20;13.90;;;13.80;99.90;;;;;;5065779;28;20195;-63
2022/09/12 02:38:24;;;;;;;17.90;13.60;;;13.70;99.90;;;;;;5067625;28;20196;-63
2022/09/12 02:40:53;;;;;;;19.67;13.77;;;13.80;99.90;;;;;;5066824;28;20892;-63
2022/09/12 02:43:21;;;;;;;18.50;14.83;;;13.70;99.90;;;;;;5063391;28;20193;-63
2022/09/12 02:45:50;;;;;;;22.10;15.67;;;13.70;99.90;;;;;;5062008;28;20187;-63
2022/09/12 02:48:23;;;;;;;19.03;14.90;;;13.70;99.90;;;;;;5062239;28;20197;-63
2022/09/12 02:50:51;;;;;;;21.10;15.17;;;13.70;99.90;;;;;;5068240;28;20950;-63
2022/09/12 02:53:20;;;;;;;21.93;16.27;;;13.80;99.90;;;;;;5070923;28;20191;-63
2022/09/12 02:55:49;;;;;;;20.03;15.23;;;13.70;99.90;;;;;;5073312;28;20196;-63
2022/09/12 02:58:20;;;;;;;21.23;16.03;;;13.70;99.90;;;;;;5069801;28;20504;-63
2022/09/12 03:00:52;;;;;;;26.20;17.00;;;13.80;99.90;;;;;;5069984;28;20689;-63
2022/09/12 03:03:48;;;;;;;25.57;17.63;;;13.70;99.90;;;;;;5066559;28;20249;-63
2022/09/12 03:06:23;;;;;;;24.80;16.10;;;13.70;99.90;;;;;;5059009;28;20196;-63
2022/09/12 03:09:00;;;;;;;24.77;17.33;;;13.70;99.90;;;;;;5087069;28;20194;-63
2022/09/12 03:11:51;;;;;;;23.10;17.33;;;13.70;99.90;;;;;;5065102;28;20643;-63
2022/09/12 03:14:32;;;;;;;21.73;16.70;;;13.70;99.90;;;;;;5071114;28;20208;-63
2022/09/12 03:17:11;;;;;;;20.93;15.67;;;13.60;99.90;;;;;;5071783;28;20194;-63
2022/09/12 03:19:52;;;;;;;24.47;15.90;;;13.60;99.90;;;;;;5071452;28;20577;-63
2022/09/12 03:22:28;;;;;;;20.63;15.73;;;13.50;99.90;;;;;;5069267;28;20555;-63
2022/09/12 03:25:03;;;;;;;25.90;15.97;;;13.50;99.90;;;;;;5065059;28;20180;-63
2022/09/12 03:27:35;;;;;;;22.53;15.83;;;13.50;99.90;;;;;;5074539;28;20188;-63
2022/09/12 03:30:05;;;;;;;23.47;16.60;;;13.50;99.90;;;;;;5067630;28;20638;-63
2022/09/12 03:32:41;;;;;;;20.40;15.20;;;13.50;99.90;;;;;;5067344;28;20611;-63
2022/09/12 03:35:12;;;;;;;24.30;16.50;;;13.40;99.90;;;;;;5068041;28;20207;-63
2022/09/12 03:37:41;;;;;;;24.27;17.37;;;13.40;99.90;;;;;;5067507;28;20207;-63
2022/09/12 03:40:11;;;;;;;24.50;17.67;;;13.40;99.90;;;;;;5066295;28;20639;-63
2022/09/12 03:42:40;;;;;;;27.17;17.83;;;13.50;99.90;;;;;;5076172;28;20199;-63
2022/09/12 03:45:10;;;;;;;32.00;16.97;;;13.50;99.90;;;;;;5066884;28;20201;-63
2022/09/12 03:47:38;;;;;;;24.77;18.10;;;13.40;99.90;;;;;;5066172;28;20196;-63
2022/09/12 03:50:07;;;;;;;26.73;17.33;;;13.40;99.90;;;;;;5065396;28;20211;-63
2022/09/12 03:52:37;;;;;;;22.53;16.07;;;13.30;99.90;;;;;;5058446;28;20210;-63
2022/09/12 03:55:06;;;;;;;25.70;16.77;;;13.30;99.90;;;;;;5072617;28;20212;-63
2022/09/12 03:57:34;;;;;;;24.77;16.60;;;13.30;99.90;;;;;;5072473;28;20188;-63
2022/09/12 04:00:04;;;;;;;27.50;16.00;;;13.20;99.90;;;;;;5070751;28;20406;-63
2022/09/12 04:02:32;;;;;;;34.73;18.80;;;13.20;99.90;;;;;;5069831;28;20234;-63
2022/09/12 04:05:09;;;;;;;29.07;17.50;;;13.30;99.90;;;;;;5063527;28;20195;-63
2022/09/12 04:07:39;;;;;;;26.53;17.20;;;13.30;99.90;;;;;;5069685;28;20192;-63
2022/09/12 04:10:07;;;;;;;26.33;17.23;;;13.20;99.90;;;;;;5056270;28;20232;-63
2022/09/12 04:12:38;;;;;;;26.70;17.87;;;13.20;99.90;;;;;;5064723;28;20670;-63
2022/09/12 04:15:07;;;;;;;28.77;18.57;;;13.20;99.90;;;;;;5059424;28;20594;-63
2022/09/12 04:17:36;;;;;;;23.70;17.30;;;13.20;99.90;;;;;;5066384;28;20230;-63
2022/09/12 04:20:05;;;;;;;26.80;17.87;;;13.30;99.90;;;;;;5068233;28;20189;-63
2022/09/12 04:22:34;;;;;;;26.67;18.00;;;13.20;99.90;;;;;;5069594;28;20203;-63
2022/09/12 04:25:04;;;;;;;32.50;19.50;;;13.20;99.90;;;;;;5066730;28;20278;-63
2022/09/12 04:27:33;;;;;;;31.50;19.77;;;13.30;99.90;;;;;;5060562;28;20198;-63
2022/09/12 04:30:02;;;;;;;30.57;19.70;;;13.30;99.90;;;;;;5067604;28;20189;-63
2022/09/12 04:32:30;;;;;;;30.07;20.00;;;13.40;99.90;;;;;;5068956;28;20207;-63
2022/09/12 04:34:59;;;;;;;28.57;19.83;;;13.40;99.90;;;;;;5068924;28;20559;-63
2022/09/12 04:37:27;;;;;;;25.80;17.77;;;13.40;99.90;;;;;;5071226;28;20196;-63
2022/09/12 04:39:56;;;;;;;26.50;17.83;;;13.30;99.90;;;;;;5065859;28;20573;-63
2022/09/12 04:42:26;;;;;;;28.77;18.40;;;13.30;99.90;;;;;;5073192;28;20714;-63
2022/09/12 04:44:54;;;;;;;24.97;16.77;;;13.20;99.90;;;;;;5076936;28;20676;-63
2022/09/12 04:47:23;;;;;;;27.17;16.93;;;13.10;99.90;;;;;;5067587;28;20193;-63
2022/09/12 04:49:51;;;;;;;23.43;15.83;;;13.10;99.90;;;;;;5069918;28;20681;-63
2022/09/12 04:52:19;;;;;;;24.43;16.27;;;13.00;99.90;;;;;;5065172;28;20199;-63
2022/09/12 04:54:48;;;;;;;23.10;15.30;;;13.00;99.90;;;;;;5058067;28;20219;-63
2022/09/12 04:57:16;;;;;;;23.57;15.90;;;12.90;99.90;;;;;;5072246;28;20208;-63
2022/09/12 04:59:46;;;;;;;24.83;17.00;;;12.90;99.90;;;;;;5064785;28;20208;-63
2022/09/12 05:02:14;;;;;;;21.00;15.07;;;12.90;99.90;;;;;;5055024;28;20204;-63
2022/09/12 05:04:42;;;;;;;21.60;15.27;;;12.90;99.90;;;;;;5074468;28;20196;-63
2022/09/12 05:07:11;;;;;;;27.63;16.13;;;12.80;99.90;;;;;;5064545;28;20201;-63
2022/09/12 05:09:39;;;;;;;24.33;16.60;;;12.80;99.90;;;;;;5069750;28;20223;-63
2022/09/12 05:12:08;;;;;;;23.83;16.20;;;12.80;99.90;;;;;;5072089;28;20192;-63
2022/09/12 05:14:36;;;;;;;27.80;16.93;;;12.80;99.90;;;;;;5071065;28;20204;-63
2022/09/12 05:17:06;;;;;;;24.73;16.53;;;12.80;99.90;;;;;;5061728;28;20207;-63
2022/09/12 05:19:34;;;;;;;24.37;17.27;;;12.80;99.90;;;;;;5068126;28;20196;-63
2022/09/12 05:22:03;;;;;;;31.33;17.70;;;12.80;99.90;;;;;;5067541;28;20207;-63
2022/09/12 05:24:32;;;;;;;27.83;18.43;;;12.80;99.90;;;;;;5073397;28;20192;-63
2022/09/12 05:27:02;;;;;;;28.27;18.60;;;12.80;99.90;;;;;;5074728;28;20200;-63
2022/09/12 05:29:30;;;;;;;34.83;19.10;;;12.80;99.90;;;;;;5072029;28;20204;-63
2022/09/12 05:31:58;;;;;;;32.17;18.80;;;12.80;99.90;;;;;;5075458;28;20203;-63
2022/09/12 05:34:28;;;;;;;32.40;19.17;;;12.80;99.90;;;;;;5077088;28;20202;-63
2022/09/12 05:36:57;;;;;;;38.23;19.03;;;12.90;99.90;;;;;;5075186;28;20283;-63
2022/09/12 05:39:27;;;;;;;33.03;19.03;;;12.90;99.90;;;;;;5069187;28;20195;-62
2022/09/12 05:41:55;;;;;;;33.17;20.23;;;12.90;99.90;;;;;;5068836;28;20204;-63
2022/09/12 05:44:24;;;;;;;30.60;18.70;;;12.90;99.90;;;;;;5068829;28;20196;-63
2022/09/12 05:46:52;;;;;;;33.80;20.27;;;12.80;99.90;;;;;;5067891;28;20215;-63
2022/09/12 05:49:21;;;;;;;34.73;21.03;;;12.80;99.90;;;;;;5063041;28;20200;-63
2022/09/12 05:51:51;;;;;;;34.43;21.03;;;12.90;99.90;;;;;;5071759;28;20203;-63
2022/09/12 05:54:20;;;;;;;33.27;21.90;;;13.00;99.90;;;;;;5065977;28;20216;-63
2022/09/12 05:56:49;;;;;;;35.93;21.87;;;13.00;99.90;;;;;;5073370;28;20216;-63
2022/09/12 05:59:19;;;;;;;43.27;22.83;;;13.10;99.90;;;;;;5069497;28;20190;-63
2022/09/12 06:01:48;;;;;;;34.07;21.67;;;13.10;99.90;;;;;;5063115;28;20552;-63
2022/09/12 06:04:17;;;;;;;35.63;22.03;;;13.10;99.90;;;;;;5072961;28;20227;-63
2022/09/12 06:06:46;;;;;;;33.10;21.67;;;13.20;99.90;;;;;;5074548;28;20552;-63
2022/09/12 06:09:16;;;;;;;40.10;21.73;;;13.20;99.90;;;;;;5082079;28;20203;-63
2022/09/12 06:11:47;;;;;;;37.37;22.83;;;13.30;99.90;;;;;;5091193;28;20196;-62
2022/09/12 06:14:18;;;;;;;44.83;22.80;;;13.40;99.90;;;;;;5074203;28;20203;-63
2022/09/12 06:16:47;;;;;;;34.53;22.13;;;13.40;99.90;;;;;;5074384;28;20273;-62
2022/09/12 06:19:17;;;;;;;37.53;21.80;;;13.50;99.90;;;;;;5073034;28;20192;-63
2022/09/12 06:21:46;;;;;;;38.57;21.53;;;13.60;99.90;;;;;;5074803;28;20192;-63
2022/09/12 06:24:16;;;;;;;38.83;23.27;;;13.70;99.90;;;;;;5068121;28;20198;-63
2022/09/12 06:26:46;;;;;;;35.30;22.20;;;13.70;99.90;;;;;;5079138;28;20199;-63
2022/09/12 06:29:14;;;;;;;34.30;22.17;;;13.80;99.90;;;;;;5066917;28;20192;-63
2022/09/12 06:31:44;;;;;;;37.17;23.07;;;13.90;99.90;;;;;;5072694;28;20184;-62
2022/09/12 06:34:13;;;;;;;35.77;22.47;;;14.00;99.90;;;;;;5073032;28;20255;-63
2022/09/12 06:36:44;;;;;;;38.10;22.30;;;14.20;99.90;;;;;;5075541;28;20208;-63
2022/09/12 06:39:15;;;;;;;37.63;21.37;;;14.40;99.90;;;;;;5059554;28;20227;-62
2022/09/12 06:41:45;;;;;;;31.77;19.97;;;14.60;99.90;;;;;;5069092;28;20551;-63
2022/09/12 06:44:16;;;;;;;31.03;20.00;;;14.70;99.90;;;;;;5067988;28;20653;-63
2022/09/12 06:46:45;;;;;;;32.50;19.70;;;14.90;99.90;;;;;;5083036;28;20199;-63
2022/09/12 06:49:13;;;;;;;26.27;18.23;;;15.20;99.90;;;;;;5089246;28;20674;-63
2022/09/12 06:51:42;;;;;;;28.63;17.17;;;15.30;99.90;;;;;;5060674;28;20596;-63
2022/09/12 06:54:13;;;;;;;20.73;16.40;;;15.60;99.90;;;;;;5055710;28;20205;-63
2022/09/12 06:56:45;;;;;;;21.77;15.37;;;15.80;99.90;;;;;;5073297;28;20579;-63
2022/09/12 06:59:15;;;;;;;24.57;15.43;;;16.00;99.90;;;;;;5068075;28;20200;-63
2022/09/12 07:01:43;;;;;;;21.47;14.37;;;16.30;99.90;;;;;;5069724;28;20198;-63
2022/09/12 07:04:12;;;;;;;24.83;14.20;;;16.40;99.90;;;;;;5066501;28;20205;-63
2022/09/12 07:06:43;;;;;;;21.03;14.30;;;16.60;99.90;;;;;;5065651;28;20239;-63
2022/09/12 07:09:15;;;;;;;18.50;13.37;;;16.90;99.90;;;;;;5067052;28;20698;-63
2022/09/12 07:11:46;;;;;;;18.53;12.97;;;17.10;99.90;;;;;;5069914;28;20212;-63
2022/09/12 07:14:17;;;;;;;18.90;13.03;;;17.20;99.90;;;;;;5079017;28;20192;-63
2022/09/12 07:16:45;;;;;;;17.93;12.67;;;17.50;99.90;;;;;;5061736;28;20234;-63
2022/09/12 07:19:14;;;;;;;16.43;12.43;;;17.60;99.90;;;;;;5077878;28;20209;-63
2022/09/12 07:21:42;;;;;;;18.03;12.03;;;17.70;99.90;;;;;;5078888;28;20197;-64
2022/09/12 07:24:10;;;;;;;15.17;11.60;;;17.80;99.90;;;;;;5070962;28;20195;-63
2022/09/12 07:26:40;;;;;;;14.03;11.10;;;18.00;99.90;;;;;;5072934;28;20204;-63
2022/09/12 07:29:15;;;;;;;16.47;11.70;;;18.10;99.90;;;;;;5072321;28;20207;-64
2022/09/12 07:32:04;;;;;;;17.07;11.77;;;18.20;99.90;;;;;;5071466;28;20253;-64
2022/09/12 07:34:33;;;;;;;15.40;11.40;;;18.10;99.90;;;;;;5058979;28;20293;-64
2022/09/12 07:37:01;;;;;;;14.60;9.73;;;18.20;99.90;;;;;;5067736;28;20765;-64
2022/09/12 07:39:29;;;;;;;13.47;9.83;;;18.20;99.90;;;;;;5066206;28;20561;-64
2022/09/12 07:41:59;;;;;;;13.73;10.70;;;18.10;99.90;;;;;;5073148;28;20643;-64
2022/09/12 07:44:29;;;;;;;13.47;10.73;;;18.20;99.90;;;;;;5072736;28;20271;-64
2022/09/12 07:46:57;;;;;;;15.47;11.00;;;18.20;99.90;;;;;;5072974;28;20191;-63
2022/09/12 07:49:25;;;;;;;14.50;9.90;;;18.20;99.90;;;;;;5079984;28;20286;-63
2022/09/12 07:51:53;;;;;;;15.40;10.20;;;18.40;99.90;;;;;;5091727;28;20191;-63
2022/09/12 07:54:21;;;;;;;13.97;10.13;;;18.50;99.90;;;;;;5087957;28;20203;-63
2022/09/12 07:56:50;;;;;;;18.23;10.77;;;18.60;99.90;;;;;;5072522;28;20219;-63
2022/09/12 07:59:19;;;;;;;12.13;9.77;;;18.60;99.90;;;;;;5066132;28;20231;-64
2022/09/12 08:02:12;;;;;;;10.93;9.37;;;18.70;99.90;;;;;;5063956;28;20197;-64
2022/09/12 08:04:45;;;;;;;12.13;9.73;;;18.90;99.90;;;;;;5098224;28;20223;-64
2022/09/12 08:07:13;;;;;;;12.90;9.70;;;19.00;99.90;;;;;;5062447;28;20835;-63
2022/09/12 08:09:41;;;;;;;10.97;8.83;;;18.90;99.90;;;;;;5069494;28;20705;-64
2022/09/12 08:12:10;;;;;;;13.63;9.73;;;19.00;99.90;;;;;;5074337;28;20196;-64
2022/09/12 08:14:38;;;;;;;10.87;9.57;;;19.00;99.90;;;;;;5066985;28;20204;-64
2022/09/12 08:17:11;;;;;;;10.83;8.80;;;19.10;99.90;;;;;;5064692;28;20218;-64
2022/09/12 08:19:39;;;;;;;11.93;9.20;;;19.40;99.90;;;;;;5078718;28;20202;-63
2022/09/12 08:22:08;;;;;;;11.17;8.57;;;19.40;99.90;;;;;;5076595;28;20207;-64
2022/09/12 08:24:38;;;;;;;9.20;8.30;;;19.40;99.90;;;;;;5069059;28;20193;-64
2022/09/12 08:27:06;;;;;;;11.50;8.80;;;19.40;99.90;;;;;;5072138;28;20192;-64
2022/09/12 08:29:35;;;;;;;9.70;8.37;;;19.60;99.90;;;;;;5064463;28;20223;-61
2022/09/12 08:32:03;;;;;;;9.43;8.07;;;19.90;99.90;;;;;;5066118;28;20680;-62
2022/09/12 08:34:33;;;;;;;9.23;8.30;;;20.00;99.90;;;;;;5068162;28;20192;-64
2022/09/12 08:37:02;;;;;;;9.63;7.57;;;20.20;99.90;;;;;;5063162;28;20221;-64
2022/09/12 08:39:31;;;;;;;11.17;7.27;;;20.60;99.90;;;;;;5079501;28;20195;-63
2022/09/12 08:42:02;;;;;;;9.20;6.93;;;20.60;99.90;;;;;;5077153;28;20200;-63
2022/09/12 08:44:56;;;;;;;9.30;7.73;;;20.60;99.90;;;;;;5063306;28;20681;-64
2022/09/12 08:47:28;;;;;;;8.47;7.67;;;20.70;99.90;;;;;;5058780;28;20196;-64
2022/09/12 08:50:10;;;;;;;7.90;6.87;;;20.60;99.90;;;;;;5063588;28;20207;-64
2022/09/12 08:52:45;;;;;;;6.00;5.50;;;20.70;99.90;;;;;;5063732;28;20232;-64
2022/09/12 08:55:27;;;;;;;7.27;6.57;;;20.70;99.90;;;;;;5068844;28;20191;-64
2022/09/12 08:57:57;;;;;;;6.77;6.17;;;20.80;99.90;;;;;;5056796;28;20217;-64
2022/09/12 09:00:31;;;;;;;10.73;7.83;;;21.00;99.90;;;;;;5067245;28;20259;-64
2022/09/12 09:03:16;;;;;;;8.30;5.93;;;21.20;99.90;;;;;;5065417;28;20197;-64
2022/09/12 09:05:51;;;;;;;6.70;6.10;;;21.50;99.90;;;;;;5063557;28;20221;-63
2022/09/12 09:08:42;;;;;;;6.63;5.47;;;21.60;99.90;;;;;;5063850;28;20198;-63
2022/09/12 09:11:28;;;;;;;5.47;4.97;;;21.70;99.90;;;;;;5071923;28;20290;-63
2022/09/12 09:16:56;;;;;;;5.63;5.10;;;21.60;99.90;;;;;;5077590;28;20219;-64
2022/09/12 09:19:28;;;;;;;5.03;4.63;;;21.70;99.90;;;;;;5059753;28;20189;-63
2022/09/12 09:22:01;;;;;;;4.90;4.60;;;21.90;99.90;;;;;;5065295;28;20223;-63
2022/09/12 09:24:44;;;;;;;6.53;4.83;;;22.20;99.90;;;;;;5058497;28;20194;-64
2022/09/12 09:27:18;;;;;;;5.67;4.87;;;22.10;99.90;;;;;;5069240;28;20200;-64
2022/09/12 09:30:15;;;;;;;6.53;4.57;;;22.20;99.90;;;;;;5059061;28;20184;-64
2022/09/12 09:32:49;;;;;;;4.30;3.97;;;22.50;99.90;;;;;;5066989;28;20199;-64
2022/09/12 09:35:22;;;;;;;4.10;3.70;;;22.70;99.90;;;;;;5070547;28;20211;-64
2022/09/12 09:38:01;;;;;;;5.83;3.83;;;22.60;99.90;;;;;;5062290;28;20206;-64
2022/09/12 09:40:40;;;;;;;4.30;4.00;;;22.50;99.90;;;;;;5059916;28;20203;-64
2022/09/12 09:43:21;;;;;;;4.33;3.97;;;22.70;99.90;;;;;;5067566;28;20206;-63
2022/09/12 09:45:49;;;;;;;5.43;4.27;;;22.70;99.90;;;;;;5061173;28;20190;-63
2022/09/12 09:48:20;;;;;;;5.67;3.70;;;22.90;99.90;;;;;;5071401;28;20279;-64
2022/09/12 09:50:49;;;;;;;5.93;3.60;;;23.00;99.90;;;;;;5076371;28;20207;-63
2022/09/12 09:53:29;;;;;;;4.23;3.40;;;23.40;99.90;;;;;;5071283;28;20200;-63
2022/09/12 09:56:02;;;;;;;5.50;3.53;;;23.60;99.90;;;;;;5069937;28;20218;-64
2022/09/12 09:58:31;;;;;;;5.63;3.73;;;23.60;99.90;;;;;;5065623;28;20247;-64
2022/09/12 10:01:01;;;;;;;5.47;3.77;;;23.80;99.90;;;;;;5065252;28;20202;-63
2022/09/12 10:03:32;;;;;;;4.90;3.63;;;23.80;99.90;;;;;;5073413;28;20882;-63
2022/09/12 10:06:06;;;;;;;8.60;3.70;;;24.00;99.90;;;;;;5097590;27;20188;-64
2022/09/12 10:08:38;;;;;;;5.23;3.83;;;23.90;99.90;;;;;;5062798;28;20199;-64
2022/09/12 10:11:15;;;;;;;3.70;3.40;;;23.80;99.90;;;;;;5063590;28;20666;-64
2022/09/12 10:13:53;;;;;;;4.00;3.60;;;24.00;99.90;;;;;;5065280;28;20192;-64
2022/09/12 10:16:23;;;;;;;5.07;3.40;;;24.20;99.90;;;;;;5065714;28;20208;-64
2022/09/12 10:18:54;;;;;;;6.40;3.77;;;24.30;99.90;;;;;;5062139;28;20216;-63
2022/09/12 10:21:31;;;;;;;3.73;3.30;;;24.40;99.90;;;;;;5067607;28;20242;-64
2022/09/12 10:24:21;;;;;;;4.20;3.80;;;24.60;99.90;;;;;;5069898;28;20206;-63
2022/09/12 10:26:53;;;;;;;3.70;3.38;;;24.90;99.90;;;;;;5068510;28;20205;-64
2022/09/12 10:29:28;;;;;;;4.05;2.97;;;24.80;99.90;;;;;;5070543;28;20188;-63
2022/09/12 10:31:59;;;;;;;2.70;2.50;;;24.90;99.90;;;;;;5057246;28;20668;-64
2022/09/12 10:34:34;;;;;;;3.95;2.88;;;25.30;99.90;;;;;;5064450;28;20209;-64
2022/09/12 10:37:06;;;;;;;2.97;2.67;;;25.60;99.90;;;;;;5067031;28;20575;-64
2022/09/12 10:39:38;;;;;;;3.15;2.90;;;25.50;99.90;;;;;;5070463;28;20218;-64
2022/09/12 10:42:06;;;;;;;2.80;2.60;;;25.40;99.90;;;;;;5069566;28;20226;-63
2022/09/12 10:44:35;;;;;;;4.60;2.58;;;25.60;99.90;;;;;;5066322;28;20213;-63
2022/09/12 10:47:20;;;;;;;2.60;2.50;;;25.50;99.90;;;;;;5065739;28;20196;-63
2022/09/12 10:49:49;;;;;;;2.80;2.60;;;25.80;99.90;;;;;;5074500;28;20189;-63
2022/09/12 10:52:22;;;;;;;2.28;2.17;;;25.80;99.90;;;;;;5071931;28;20211;-64
2022/09/12 10:54:52;;;;;;;4.03;2.30;;;25.70;99.90;;;;;;5060448;28;20263;-64
2022/09/12 10:57:46;;;;;;;2.58;2.38;;;25.80;99.90;;;;;;5061123;28;20203;-64
2022/09/12 11:00:16;;;;;;;2.55;2.35;;;26.10;99.90;;;;;;5056988;28;20202;-64
2022/09/12 11:02:52;;;;;;;2.47;2.20;;;26.60;99.90;;;;;;5067725;28;20224;-63
2022/09/12 11:05:41;;;;;;;3.80;2.42;;;26.90;99.90;;;;;;5063347;28;20684;-63
2022/09/12 11:08:24;;;;;;;3.25;3.05;;;27.00;99.90;;;;;;5062051;28;20217;-63
2022/09/12 11:10:59;;;;;;;4.95;2.35;;;26.40;99.90;;;;;;5062609;28;20244;-64
2022/09/12 11:13:44;;;;;;;3.45;2.60;;;26.30;99.90;;;;;;5064665;28;20202;-64
2022/09/12 11:16:22;;;;;;;5.38;2.30;;;26.40;99.90;;;;;;5062922;28;20222;-63
2022/09/12 11:19:13;;;;;;;3.17;2.40;;;26.50;99.90;;;;;;5067561;28;20310;-63
2022/09/12 11:21:54;;;;;;;2.75;2.60;;;26.40;99.90;;;;;;5053937;28;20210;-63
2022/09/12 11:24:56;;;;;;;2.70;2.50;;;26.40;99.90;;;;;;5066999;28;20206;-63
2022/09/12 11:27:38;;;;;;;2.30;2.20;;;26.40;99.90;;;;;;5066497;28;20536;-63
2022/09/12 11:30:11;;;;;;;5.05;2.50;;;26.70;99.90;;;;;;5054582;28;20194;-63
2022/09/12 11:33:04;;;;;;;2.60;2.50;;;26.70;99.90;;;;;;5055023;28;20196;-63
2022/09/12 11:35:35;;;;;;;2.10;2.10;;;26.90;99.90;;;;;;5069274;28;20206;-64
2022/09/12 11:38:39;;;;;;;2.40;2.05;;;26.90;99.90;;;;;;5068903;28;20213;-63
2022/09/12 11:41:15;;;;;;;2.20;2.10;;;27.00;99.90;;;;;;5068597;28;20200;-63
2022/09/12 11:43:50;;;;;;;4.13;2.28;;;27.20;99.90;;;;;;5059600;28;20200;-63
2022/09/12 11:46:22;;;;;;;2.20;2.00;;;27.30;99.90;;;;;;5065408;28;20201;-63
2022/09/12 11:48:57;;;;;;;1.95;1.85;;;27.40;99.90;;;;;;5061063;28;20190;-64
2022/09/12 11:51:28;;;;;;;2.30;2.20;;;27.50;99.90;;;;;;5073821;28;20605;-63
2022/09/12 11:54:09;;;;;;;2.10;2.00;;;27.40;99.90;;;;;;5070003;28;20997;-63
2022/09/12 11:56:42;;;;;;;2.20;2.10;;;27.40;99.90;;;;;;5052847;28;20207;-61
2022/09/12 11:59:23;;;;;;;1.77;1.77;;;27.40;99.90;;;;;;5072281;28;20209;-64
2022/09/12 12:01:57;;;;;;;2.00;1.90;;;27.20;99.90;;;;;;5061810;28;20541;-60
2022/09/12 12:04:35;;;;;;;2.72;2.10;;;27.20;99.90;;;;;;5068846;28;20196;-60
2022/09/12 12:07:06;;;;;;;2.47;2.08;;;27.10;99.90;;;;;;5062842;28;20641;-60
2022/09/12 12:09:34;;;;;;;3.90;2.05;;;26.90;99.90;;;;;;5062431;28;20572;-60
2022/09/12 12:12:07;;;;;;;2.30;2.20;;;26.90;99.90;;;;;;5067332;28;20192;-60
2022/09/12 12:14:43;;;;;;;2.08;1.90;;;26.90;99.90;;;;;;5061285;28;20203;-59
2022/09/12 12:17:15;;;;;;;2.58;2.38;;;26.90;99.90;;;;;;5069892;28;20185;-59
2022/09/12 12:19:46;;;;;;;1.83;1.80;;;26.80;99.90;;;;;;5068183;28;20230;-60
2022/09/12 12:22:20;;;;;;;1.80;1.80;;;26.80;99.90;;;;;;5073808;28;20198;-59
2022/09/12 12:25:08;;;;;;;2.10;1.92;;;26.90;99.90;;;;;;5069334;28;20564;-59
2022/09/12 12:27:49;;;;;;;1.67;1.67;;;26.80;99.90;;;;;;5059317;28;20234;-60
2022/09/12 12:31:04;;;;;;;1.70;1.70;;;26.70;99.90;;;;;;5059626;28;20197;-60
2022/09/12 12:33:55;;;;;;;3.28;1.80;;;26.60;99.90;;;;;;5061000;28;20551;-59
2022/09/12 12:36:37;;;;;;;2.22;2.13;;;26.50;99.90;;;;;;5059748;28;20208;-60
2022/09/12 12:39:54;;;;;;;2.40;1.80;;;26.70;99.90;;;;;;5058493;28;20216;-59
2022/09/12 12:43:04;;;;;;;2.57;2.00;;;26.70;99.90;;;;;;5071368;28;20202;-61
2022/09/12 12:46:01;;;;;;;2.00;1.90;;;26.90;99.90;;;;;;5078312;28;20199;-61
2022/09/12 12:48:43;;;;;;;2.87;2.07;;;27.00;99.90;;;;;;5053342;28;20604;-58
2022/09/12 12:51:38;;;;;;;2.20;2.10;;;27.00;99.90;;;;;;5074392;28;20207;-62
2022/09/12 12:54:53;;;;;;;2.10;2.00;;;27.20;99.90;;;;;;5070991;28;20230;-62
2022/09/12 12:57:44;;;;;;;2.00;1.90;;;27.30;99.90;;;;;;5051479;28;20196;-62
2022/09/12 13:00:32;;;;;;;4.50;1.67;;;27.50;99.90;;;;;;5080081;28;20223;-62
2022/09/12 13:03:10;;;;;;;1.80;1.80;;;27.30;99.90;;;;;;5076873;28;20200;-61
2022/09/12 13:05:43;;;;;;;2.67;1.90;;;27.20;99.90;;;;;;5074408;28;20195;-62
2022/09/12 13:08:30;;;;;;;3.90;2.00;;;27.30;99.90;;;;;;5075985;28;20219;-62
2022/09/12 13:11:01;;;;;;;2.50;1.90;;;27.50;99.90;;;;;;5075864;28;20225;-61